createdAt,value
2018-03-28T02:35:33.986Z,15.73
2018-03-28T02:38:04.255Z,17.67
2018-03-28T02:40:34.220Z,16.98
2018-03-28T02:43:04.233Z,16.00
2018-03-28T02:45:34.341Z,16.17
2018-03-28T02:48:04.510Z,15.32
2018-03-28T02:50:34.801Z,15.48
2018-03-28T02:53:04.802Z,16.75
2018-03-28T02:55:34.776Z,16.55
2018-03-28T02:58:04.870Z,16.42
2018-03-28T03:00:34.816Z,17.55
2018-03-28T03:03:04.781Z,17.17
2018-03-28T03:05:34.777Z,15.90
2018-03-28T03:08:04.841Z,16.35
2018-03-28T03:10:34.832Z,14.85
2018-03-28T03:13:04.922Z,16.37
2018-03-28T03:15:34.940Z,15.70
2018-03-28T03:18:05.332Z,16.23
2018-03-28T03:20:35.308Z,16.02
2018-03-28T03:23:05.309Z,16.60
2018-03-28T03:25:35.610Z,15.20
2018-03-28T03:28:05.625Z,15.73
2018-03-28T03:30:35.760Z,16.12
2018-03-28T03:33:05.759Z,16.05
2018-03-28T03:35:36.251Z,15.80
2018-03-28T03:38:06.270Z,15.05
2018-03-28T03:40:36.373Z,16.02
2018-03-28T03:43:06.711Z,15.55
2018-03-28T03:45:36.814Z,16.33
2018-03-28T03:50:40.807Z,16.75
2018-03-28T03:53:10.931Z,15.80
2018-03-28T03:55:41.043Z,16.23
2018-03-28T03:58:11.122Z,16.95
2018-03-28T04:00:41.310Z,17.10
2018-03-28T04:03:15.049Z,16.73
2018-03-28T04:05:46.696Z,18.70
2018-03-28T04:08:17.997Z,17.05
2018-03-28T04:10:48.442Z,16.92
2018-03-28T04:13:18.423Z,17.23
2018-03-28T04:15:48.501Z,18.08
2018-03-28T04:18:18.542Z,17.98
2018-03-28T04:20:48.685Z,17.40
2018-03-28T04:23:18.790Z,16.73
2018-03-28T04:25:48.975Z,18.00
2018-03-28T04:28:19.028Z,18.17
2018-03-28T04:30:49.156Z,17.67
2018-03-28T04:33:20.498Z,17.27
2018-03-28T04:35:50.661Z,17.60
2018-03-28T04:38:20.660Z,18.20
2018-03-28T04:40:50.665Z,17.08
2018-03-28T04:43:23.577Z,17.00
2018-03-28T04:45:56.906Z,17.45
2018-03-28T04:48:30.340Z,17.08
2018-03-28T04:51:00.429Z,17.87
2018-03-28T04:53:30.343Z,17.10
2018-03-28T04:56:01.018Z,17.15
2018-03-28T04:58:31.163Z,19.25
2018-03-28T05:01:01.952Z,17.83
2018-03-28T05:03:32.025Z,18.35
2018-03-28T05:06:06.570Z,16.20
2018-03-28T11:52:23.657Z,25.20
2018-03-28T11:58:56.009Z,32.97
2018-03-28T12:01:33.778Z,35.28
2018-03-28T12:04:04.006Z,34.15
2018-03-28T12:06:34.850Z,39.92
2018-03-28T12:09:04.737Z,38.78
2018-03-28T12:26:26.172Z,34.55
2018-03-28T12:40:36.371Z,32.60
2018-03-28T12:43:33.787Z,31.30
2018-03-28T12:56:07.095Z,28.30
2018-03-28T13:19:49.458Z,40.00
2018-03-28T13:22:27.080Z,40.07
2018-03-28T13:27:38.150Z,39.00
2018-03-28T13:30:08.813Z,35.87
2018-03-28T13:35:48.910Z,35.37
2018-03-28T13:38:18.821Z,35.50
2018-03-28T13:40:48.475Z,36.47
2018-03-28T13:43:25.769Z,35.47
2018-03-28T13:46:10.301Z,36.23
2018-03-28T13:54:11.195Z,34.90
2018-03-28T13:56:41.800Z,31.70
2018-03-28T14:01:50.231Z,28.90
2018-03-28T14:10:45.713Z,29.77
2018-03-28T14:13:18.188Z,27.30
2018-03-28T14:18:40.890Z,27.60
2018-03-28T14:28:13.335Z,27.63
2018-03-28T14:31:34.451Z,27.97
2018-03-28T14:45:16.740Z,25.83
2018-03-28T14:47:48.676Z,24.05
2018-03-28T14:50:22.701Z,22.83
2018-03-28T14:53:04.711Z,22.77
2018-03-28T14:55:48.927Z,22.92
2018-03-28T15:04:06.645Z,23.42
2018-03-28T15:10:12.834Z,25.00
2018-03-28T15:15:20.475Z,25.00
2018-03-28T15:27:36.443Z,23.73
2018-03-28T15:35:40.633Z,24.23
2018-03-28T15:38:18.216Z,23.67
2018-03-28T15:40:52.904Z,23.40
2018-03-28T15:46:19.163Z,22.90
2018-03-28T15:53:59.414Z,26.65
2018-03-28T15:59:43.213Z,24.95
2018-03-28T16:05:18.500Z,25.92
2018-03-28T16:07:49.707Z,29.33
2018-03-28T16:10:19.704Z,24.70
2018-03-28T16:12:54.468Z,25.35
2018-03-28T16:15:32.326Z,22.52
2018-03-28T16:18:02.771Z,22.42
2018-03-28T16:20:33.302Z,22.05
2018-03-28T16:31:51.086Z,21.15
2018-03-28T16:34:20.954Z,24.10
2018-03-28T16:36:51.024Z,25.30
2018-03-28T16:39:23.084Z,28.95
2018-03-28T16:41:57.082Z,26.50
2018-03-28T16:44:26.994Z,26.45
2018-03-28T16:49:32.634Z,25.95
2018-03-28T16:52:02.682Z,26.15
2018-03-28T16:54:34.345Z,25.83
2018-03-28T16:57:04.466Z,24.95
2018-03-28T16:59:34.110Z,26.98
2018-03-28T17:02:04.019Z,23.73
2018-03-28T17:04:34.209Z,24.77
2018-03-28T17:07:05.626Z,22.80
2018-03-28T17:09:35.601Z,23.67
2018-03-28T17:12:09.080Z,21.98
2018-03-28T17:14:40.487Z,22.02
2018-03-28T17:17:10.605Z,23.98
2018-03-28T17:19:40.598Z,22.33
2018-03-28T17:22:10.827Z,21.55
2018-03-28T17:24:41.178Z,22.00
2018-03-28T17:27:11.869Z,21.05
2018-03-28T17:29:41.852Z,21.98
2018-03-28T17:32:14.074Z,20.90
2018-03-28T17:34:44.199Z,21.80
2018-03-28T17:37:14.124Z,24.00
2018-03-28T17:39:43.822Z,21.75
2018-03-28T17:42:13.956Z,21.25
2018-03-28T17:44:43.958Z,20.95
2018-03-28T17:47:14.200Z,22.85
2018-03-28T17:49:44.267Z,24.92
2018-03-28T17:52:14.234Z,26.90
2018-03-28T17:57:18.241Z,29.30
2018-03-28T17:59:52.025Z,30.23
2018-03-28T18:02:22.149Z,33.42
2018-03-28T18:04:52.068Z,30.08
2018-03-28T18:07:22.180Z,32.05
2018-03-28T18:09:52.461Z,29.58
2018-03-28T18:12:22.436Z,31.37
2018-03-28T18:14:52.554Z,31.73
2018-03-28T18:17:23.061Z,31.90
2018-03-28T18:19:53.816Z,31.20
2018-03-28T18:22:23.661Z,30.90
2018-03-28T18:24:53.540Z,30.88
2018-03-28T18:27:23.370Z,31.12
2018-03-28T18:29:54.093Z,33.28
2018-03-28T18:32:24.736Z,30.85
2018-03-28T18:34:54.593Z,30.35
2018-03-28T18:37:24.659Z,29.90
2018-03-28T18:40:07.107Z,31.60
2018-03-28T18:42:39.006Z,30.27
2018-03-28T18:45:09.004Z,28.50
2018-03-28T18:47:39.238Z,29.77
2018-03-28T18:50:09.235Z,28.95
2018-03-28T18:52:39.291Z,27.92
2018-03-28T18:55:09.522Z,28.50
2018-03-28T18:57:39.691Z,25.10
2018-03-28T19:00:09.624Z,28.25
2018-03-28T19:02:39.654Z,26.77
2018-03-28T19:05:09.527Z,27.90
2018-03-28T19:07:39.423Z,26.30
2018-03-28T19:10:09.275Z,25.92
2018-03-28T19:12:39.112Z,25.85
2018-03-28T19:15:08.980Z,25.52
2018-03-28T19:17:38.833Z,25.12
2018-03-28T19:20:08.684Z,22.77
2018-03-28T19:22:38.557Z,25.08
2018-03-28T19:25:08.400Z,24.58
2018-03-28T19:27:38.271Z,23.48
2018-03-28T19:30:08.240Z,23.52
2018-03-28T19:32:38.085Z,25.98
2018-03-28T19:35:08.023Z,23.58
2018-03-28T19:37:37.896Z,23.83
2018-03-28T19:40:07.740Z,22.75
2018-03-28T19:42:37.704Z,23.42
2018-03-28T19:45:07.606Z,22.67
2018-03-28T19:47:37.468Z,22.70
2018-03-28T19:50:07.381Z,22.62
2018-03-28T19:52:37.242Z,21.98
2018-03-28T19:55:06.612Z,24.73
2018-03-28T19:57:36.458Z,24.00
2018-03-28T20:00:06.426Z,23.65
2018-03-28T20:02:36.272Z,23.00
2018-03-28T20:05:06.941Z,22.90
2018-03-28T20:07:36.812Z,24.12
2018-03-28T20:10:06.649Z,23.70
2018-03-28T20:12:36.766Z,25.40
2018-03-28T20:15:06.865Z,24.87
2018-03-28T20:17:36.757Z,24.77
2018-03-28T20:20:06.658Z,24.42
2018-03-28T20:22:36.571Z,24.37
2018-03-28T20:25:06.630Z,25.15
2018-03-28T20:27:36.485Z,23.90
2018-03-28T20:30:06.439Z,24.12
2018-03-28T20:32:36.375Z,22.62
2018-03-28T20:35:06.285Z,23.50
2018-03-28T20:37:36.480Z,22.10
2018-03-28T20:40:06.586Z,24.58
2018-03-28T20:42:36.477Z,22.62
2018-03-28T20:45:06.322Z,24.65
2018-03-28T20:47:36.176Z,23.77
2018-03-28T20:50:05.893Z,21.92
2018-03-28T20:52:35.794Z,20.83
2018-03-28T20:55:05.854Z,21.35
2018-03-28T20:57:35.386Z,21.90
2018-03-28T21:00:04.872Z,22.65
2018-03-28T21:02:35.228Z,20.80
2018-03-28T21:05:04.967Z,24.23
2018-03-28T21:07:51.353Z,23.00
2018-03-28T21:10:27.628Z,24.00
2018-03-28T21:12:57.910Z,22.42
2018-03-28T21:15:27.803Z,24.55
2018-03-28T21:17:57.985Z,25.08
2018-03-28T21:20:28.076Z,24.37
2018-03-28T21:22:58.592Z,23.95
2018-03-28T21:25:28.761Z,25.08
2018-03-28T21:27:58.816Z,25.17
2018-03-28T21:30:28.381Z,25.73
2018-03-28T21:32:58.410Z,25.15
2018-03-28T21:35:28.440Z,27.02
2018-03-28T21:37:58.328Z,24.70
2018-03-28T21:40:36.505Z,26.95
2018-03-28T21:43:08.705Z,27.37
2018-03-28T21:45:38.788Z,26.87
2018-03-28T21:48:08.604Z,26.87
2018-03-28T21:50:38.716Z,27.50
2018-03-28T21:53:08.682Z,27.80
2018-03-28T21:55:38.651Z,27.27
2018-03-28T21:58:09.077Z,27.40
2018-03-28T22:00:39.041Z,29.23
2018-03-28T22:03:08.913Z,26.83
2018-03-28T22:05:38.964Z,26.95
2018-03-28T22:08:08.841Z,25.62
2018-03-28T22:10:38.612Z,24.55
2018-03-28T22:13:08.551Z,25.42
2018-03-28T22:15:38.494Z,26.45
2018-03-28T22:18:08.493Z,25.80
2018-03-28T22:20:38.371Z,26.33
2018-03-28T22:23:08.311Z,25.58
2018-03-28T22:25:38.194Z,26.62
2018-03-28T22:28:08.264Z,25.70
2018-03-28T22:30:38.158Z,25.62
2018-03-28T22:33:08.077Z,24.15
2018-03-28T22:35:38.183Z,26.30
2018-03-28T22:38:08.268Z,24.75
2018-03-28T22:40:38.174Z,26.95
2018-03-28T22:43:08.169Z,24.02
2018-03-28T22:45:38.192Z,25.92
2018-03-28T22:48:08.353Z,24.25
2018-03-28T22:50:38.293Z,23.90
2018-03-28T22:53:08.229Z,24.65
2018-03-28T22:55:38.306Z,24.63
2018-03-28T22:58:09.228Z,24.65
2018-03-28T23:00:39.161Z,26.55
2018-03-28T23:03:09.081Z,24.95
2018-03-28T23:05:38.996Z,23.30
2018-03-28T23:08:08.976Z,23.62
2018-03-28T23:10:44.503Z,23.25
2018-03-28T23:13:19.975Z,25.90
2018-03-28T23:15:49.880Z,23.27
2018-03-28T23:18:19.840Z,22.15
2018-03-28T23:20:49.800Z,25.30
2018-03-28T23:23:19.709Z,26.30
2018-03-28T23:25:49.644Z,23.27
2018-03-28T23:28:19.610Z,25.77
2018-03-28T23:30:49.622Z,25.23
2018-03-28T23:33:19.548Z,25.42
2018-03-28T23:35:49.436Z,25.20
2018-03-28T23:38:19.327Z,24.02
2018-03-28T23:40:49.243Z,23.42
2018-03-28T23:43:20.046Z,24.63
2018-03-28T23:45:49.991Z,24.63
2018-03-28T23:48:19.971Z,24.30
2018-03-28T23:50:50.201Z,24.05
2018-03-28T23:53:20.197Z,24.27
2018-03-28T23:55:50.218Z,23.23
2018-03-28T23:58:20.149Z,23.85
